sensor_id;sensor_type;location;lat;lon;timestamp;P1;durP1;ratioP1;P2;durP2;ratioP2
15946;SDS011;8072;52.554;7.966;2023-04-06T00:01:39;4.80;;;4.30;;
15946;SDS011;8072;52.554;7.966;2023-04-06T00:04:05;6.10;;;4.87;;
15946;SDS011;8072;52.554;7.966;2023-04-06T00:06:32;6.57;;;4.70;;
15946;SDS011;8072;52.554;7.966;2023-04-06T00:08:58;5.27;;;4.67;;
15946;SDS011;8072;52.554;7.966;2023-04-06T00:11:24;6.77;;;4.83;;
15946;SDS011;8072;52.554;7.966;2023-04-06T00:13:50;6.00;;;5.10;;
15946;SDS011;8072;52.554;7.966;2023-04-06T00:16:17;7.70;;;5.60;;
15946;SDS011;8072;52.554;7.966;2023-04-06T00:18:43;6.30;;;4.83;;
15946;SDS011;8072;52.554;7.966;2023-04-06T00:21:13;7.77;;;5.00;;
15946;SDS011;8072;52.554;7.966;2023-04-06T00:23:40;6.20;;;5.20;;
15946;SDS011;8072;52.554;7.966;2023-04-06T00:26:06;9.03;;;6.00;;
15946;SDS011;8072;52.554;7.966;2023-04-06T00:28:33;6.30;;;4.93;;
15946;SDS011;8072;52.554;7.966;2023-04-06T00:30:59;7.20;;;5.40;;
15946;SDS011;8072;52.554;7.966;2023-04-06T00:33:24;6.63;;;5.30;;
15946;SDS011;8072;52.554;7.966;2023-04-06T00:35:50;7.43;;;5.07;;
15946;SDS011;8072;52.554;7.966;2023-04-06T00:38:16;8.27;;;5.40;;
15946;SDS011;8072;52.554;7.966;2023-04-06T00:40:44;8.97;;;5.53;;
15946;SDS011;8072;52.554;7.966;2023-04-06T00:43:10;6.83;;;5.60;;
15946;SDS011;8072;52.554;7.966;2023-04-06T00:45:40;7.17;;;6.03;;
15946;SDS011;8072;52.554;7.966;2023-04-06T00:48:07;8.07;;;6.07;;
15946;SDS011;8072;52.554;7.966;2023-04-06T00:50:33;8.43;;;6.63;;
15946;SDS011;8072;52.554;7.966;2023-04-06T00:53:00;8.10;;;6.50;;
15946;SDS011;8072;52.554;7.966;2023-04-06T00:55:26;10.23;;;6.07;;
15946;SDS011;8072;52.554;7.966;2023-04-06T00:57:53;9.17;;;6.57;;
15946;SDS011;8072;52.554;7.966;2023-04-06T01:00:20;8.30;;;6.10;;
15946;SDS011;8072;52.554;7.966;2023-04-06T01:02:46;7.10;;;5.80;;
15946;SDS011;8072;52.554;7.966;2023-04-06T01:05:13;7.00;;;5.73;;
15946;SDS011;8072;52.554;7.966;2023-04-06T01:07:39;6.40;;;5.60;;
15946;SDS011;8072;52.554;7.966;2023-04-06T01:10:05;8.87;;;6.07;;
15946;SDS011;8072;52.554;7.966;2023-04-06T01:12:31;7.93;;;5.53;;
15946;SDS011;8072;52.554;7.966;2023-04-06T01:14:57;7.37;;;6.00;;
15946;SDS011;8072;52.554;7.966;2023-04-06T01:17:22;7.13;;;5.80;;
15946;SDS011;8072;52.554;7.966;2023-04-06T01:19:48;9.43;;;5.53;;
15946;SDS011;8072;52.554;7.966;2023-04-06T01:22:16;7.90;;;5.80;;
15946;SDS011;8072;52.554;7.966;2023-04-06T01:24:42;8.47;;;5.67;;
15946;SDS011;8072;52.554;7.966;2023-04-06T01:27:08;7.50;;;5.57;;
15946;SDS011;8072;52.554;7.966;2023-04-06T01:29:34;9.93;;;6.30;;
15946;SDS011;8072;52.554;7.966;2023-04-06T01:32:00;8.13;;;5.70;;
15946;SDS011;8072;52.554;7.966;2023-04-06T01:34:27;8.27;;;6.07;;
15946;SDS011;8072;52.554;7.966;2023-04-06T01:36:53;7.27;;;6.13;;
15946;SDS011;8072;52.554;7.966;2023-04-06T01:39:19;6.60;;;5.67;;
15946;SDS011;8072;52.554;7.966;2023-04-06T01:41:45;8.00;;;5.80;;
15946;SDS011;8072;52.554;7.966;2023-04-06T01:44:12;8.77;;;6.10;;
15946;SDS011;8072;52.554;7.966;2023-04-06T01:46:41;7.53;;;6.30;;
15946;SDS011;8072;52.554;7.966;2023-04-06T01:49:07;9.07;;;6.50;;
15946;SDS011;8072;52.554;7.966;2023-04-06T01:51:32;10.47;;;6.30;;
15946;SDS011;8072;52.554;7.966;2023-04-06T01:54:00;8.97;;;6.90;;
15946;SDS011;8072;52.554;7.966;2023-04-06T01:56:25;8.73;;;6.40;;
15946;SDS011;8072;52.554;7.966;2023-04-06T01:58:51;9.03;;;6.73;;
15946;SDS011;8072;52.554;7.966;2023-04-06T02:01:17;8.20;;;6.60;;
15946;SDS011;8072;52.554;7.966;2023-04-06T02:03:43;9.73;;;7.20;;
15946;SDS011;8072;52.554;7.966;2023-04-06T02:06:09;9.27;;;6.33;;
15946;SDS011;8072;52.554;7.966;2023-04-06T02:08:35;10.20;;;6.30;;
15946;SDS011;8072;52.554;7.966;2023-04-06T02:11:00;9.97;;;7.63;;
15946;SDS011;8072;52.554;7.966;2023-04-06T02:13:26;10.17;;;6.90;;
15946;SDS011;8072;52.554;7.966;2023-04-06T02:15:52;9.10;;;6.37;;
15946;SDS011;8072;52.554;7.966;2023-04-06T02:18:18;9.97;;;7.07;;
15946;SDS011;8072;52.554;7.966;2023-04-06T02:20:44;11.30;;;7.40;;
15946;SDS011;8072;52.554;7.966;2023-04-06T02:23:11;9.67;;;6.83;;
15946;SDS011;8072;52.554;7.966;2023-04-06T02:25:37;11.73;;;7.43;;
15946;SDS011;8072;52.554;7.966;2023-04-06T02:28:03;9.20;;;7.00;;
15946;SDS011;8072;52.554;7.966;2023-04-06T02:30:29;9.87;;;6.23;;
15946;SDS011;8072;52.554;7.966;2023-04-06T02:32:57;10.33;;;6.67;;
15946;SDS011;8072;52.554;7.966;2023-04-06T02:35:25;11.10;;;6.53;;
15946;SDS011;8072;52.554;7.966;2023-04-06T02:37:53;10.50;;;7.57;;
15946;SDS011;8072;52.554;7.966;2023-04-06T02:40:19;11.80;;;7.60;;
15946;SDS011;8072;52.554;7.966;2023-04-06T02:42:45;10.60;;;6.80;;
15946;SDS011;8072;52.554;7.966;2023-04-06T02:45:11;13.73;;;7.23;;
15946;SDS011;8072;52.554;7.966;2023-04-06T02:47:37;8.50;;;6.43;;
15946;SDS011;8072;52.554;7.966;2023-04-06T02:50:03;10.07;;;6.87;;
15946;SDS011;8072;52.554;7.966;2023-04-06T02:52:29;10.37;;;6.57;;
15946;SDS011;8072;52.554;7.966;2023-04-06T02:54:54;9.23;;;7.00;;
15946;SDS011;8072;52.554;7.966;2023-04-06T02:57:20;11.37;;;6.57;;
15946;SDS011;8072;52.554;7.966;2023-04-06T02:59:46;10.90;;;7.30;;
15946;SDS011;8072;52.554;7.966;2023-04-06T03:02:13;9.50;;;6.93;;
15946;SDS011;8072;52.554;7.966;2023-04-06T03:04:38;8.97;;;6.80;;
15946;SDS011;8072;52.554;7.966;2023-04-06T03:07:04;8.30;;;6.50;;
15946;SDS011;8072;52.554;7.966;2023-04-06T03:09:31;9.77;;;7.20;;
15946;SDS011;8072;52.554;7.966;2023-04-06T03:11:58;10.37;;;7.33;;
15946;SDS011;8072;52.554;7.966;2023-04-06T03:14:24;11.07;;;7.93;;
15946;SDS011;8072;52.554;7.966;2023-04-06T03:16:50;9.63;;;7.23;;
15946;SDS011;8072;52.554;7.966;2023-04-06T03:19:15;11.73;;;7.40;;
15946;SDS011;8072;52.554;7.966;2023-04-06T03:21:41;11.47;;;7.40;;
15946;SDS011;8072;52.554;7.966;2023-04-06T03:24:07;10.63;;;7.53;;
15946;SDS011;8072;52.554;7.966;2023-04-06T03:26:33;12.70;;;7.63;;
15946;SDS011;8072;52.554;7.966;2023-04-06T03:28:59;11.67;;;7.23;;
15946;SDS011;8072;52.554;7.966;2023-04-06T03:31:26;11.37;;;7.37;;
15946;SDS011;8072;52.554;7.966;2023-04-06T03:33:52;11.70;;;7.70;;
15946;SDS011;8072;52.554;7.966;2023-04-06T03:36:18;13.27;;;8.00;;
15946;SDS011;8072;52.554;7.966;2023-04-06T03:38:43;11.60;;;7.97;;
15946;SDS011;8072;52.554;7.966;2023-04-06T03:41:09;9.57;;;6.63;;
15946;SDS011;8072;52.554;7.966;2023-04-06T03:43:42;13.77;;;7.57;;
15946;SDS011;8072;52.554;7.966;2023-04-06T03:46:10;9.23;;;7.10;;
15946;SDS011;8072;52.554;7.966;2023-04-06T03:48:35;10.73;;;7.50;;
15946;SDS011;8072;52.554;7.966;2023-04-06T03:51:01;9.57;;;6.90;;
15946;SDS011;8072;52.554;7.966;2023-04-06T03:53:27;9.10;;;6.67;;
15946;SDS011;8072;52.554;7.966;2023-04-06T03:55:53;10.70;;;7.53;;
15946;SDS011;8072;52.554;7.966;2023-04-06T03:58:18;10.17;;;7.00;;
15946;SDS011;8072;52.554;7.966;2023-04-06T04:00:44;10.77;;;7.20;;
15946;SDS011;8072;52.554;7.966;2023-04-06T04:03:10;10.40;;;7.13;;
15946;SDS011;8072;52.554;7.966;2023-04-06T04:05:36;11.60;;;7.47;;
15946;SDS011;8072;52.554;7.966;2023-04-06T04:08:01;9.80;;;7.27;;
15946;SDS011;8072;52.554;7.966;2023-04-06T04:10:27;11.47;;;7.23;;
15946;SDS011;8072;52.554;7.966;2023-04-06T04:12:53;11.73;;;7.90;;
15946;SDS011;8072;52.554;7.966;2023-04-06T04:15:19;9.43;;;6.43;;
15946;SDS011;8072;52.554;7.966;2023-04-06T04:17:45;10.73;;;8.10;;
15946;SDS011;8072;52.554;7.966;2023-04-06T04:20:14;11.50;;;7.67;;
15946;SDS011;8072;52.554;7.966;2023-04-06T04:22:41;13.07;;;7.70;;
15946;SDS011;8072;52.554;7.966;2023-04-06T04:25:07;11.37;;;7.70;;
15946;SDS011;8072;52.554;7.966;2023-04-06T04:27:34;12.57;;;7.97;;
15946;SDS011;8072;52.554;7.966;2023-04-06T04:30:01;14.03;;;8.33;;
15946;SDS011;8072;52.554;7.966;2023-04-06T04:32:27;10.23;;;7.60;;
15946;SDS011;8072;52.554;7.966;2023-04-06T04:34:54;12.33;;;7.63;;
15946;SDS011;8072;52.554;7.966;2023-04-06T04:37:19;11.83;;;8.03;;
15946;SDS011;8072;52.554;7.966;2023-04-06T04:39:45;11.23;;;7.50;;
15946;SDS011;8072;52.554;7.966;2023-04-06T04:42:11;10.60;;;7.43;;
15946;SDS011;8072;52.554;7.966;2023-04-06T04:44:37;11.57;;;7.30;;
15946;SDS011;8072;52.554;7.966;2023-04-06T04:47:03;13.13;;;8.77;;
15946;SDS011;8072;52.554;7.966;2023-04-06T04:49:29;16.10;;;8.77;;
15946;SDS011;8072;52.554;7.966;2023-04-06T04:51:54;13.70;;;8.30;;
15946;SDS011;8072;52.554;7.966;2023-04-06T04:54:20;11.27;;;7.90;;
15946;SDS011;8072;52.554;7.966;2023-04-06T04:56:46;12.80;;;7.77;;
15946;SDS011;8072;52.554;7.966;2023-04-06T04:59:12;10.90;;;7.70;;
15946;SDS011;8072;52.554;7.966;2023-04-06T05:01:38;10.70;;;8.33;;
15946;SDS011;8072;52.554;7.966;2023-04-06T05:04:03;12.20;;;8.17;;
15946;SDS011;8072;52.554;7.966;2023-04-06T05:06:29;12.63;;;8.03;;
15946;SDS011;8072;52.554;7.966;2023-04-06T05:08:55;10.70;;;7.90;;
15946;SDS011;8072;52.554;7.966;2023-04-06T05:11:21;13.63;;;8.27;;
15946;SDS011;8072;52.554;7.966;2023-04-06T05:13:47;10.83;;;7.47;;
15946;SDS011;8072;52.554;7.966;2023-04-06T05:16:13;12.50;;;8.10;;
15946;SDS011;8072;52.554;7.966;2023-04-06T05:18:39;13.20;;;7.40;;
15946;SDS011;8072;52.554;7.966;2023-04-06T05:21:04;10.63;;;7.53;;
15946;SDS011;8072;52.554;7.966;2023-04-06T05:23:30;11.87;;;7.53;;
15946;SDS011;8072;52.554;7.966;2023-04-06T05:25:56;12.50;;;7.70;;
15946;SDS011;8072;52.554;7.966;2023-04-06T05:28:22;12.73;;;7.93;;
15946;SDS011;8072;52.554;7.966;2023-04-06T05:30:48;12.37;;;8.10;;
15946;SDS011;8072;52.554;7.966;2023-04-06T05:33:14;12.63;;;7.70;;
15946;SDS011;8072;52.554;7.966;2023-04-06T05:35:40;15.80;;;8.13;;
15946;SDS011;8072;52.554;7.966;2023-04-06T05:38:07;10.57;;;7.60;;
15946;SDS011;8072;52.554;7.966;2023-04-06T05:40:35;9.90;;;7.30;;
15946;SDS011;8072;52.554;7.966;2023-04-06T05:43:03;10.37;;;8.17;;
15946;SDS011;8072;52.554;7.966;2023-04-06T05:45:29;11.87;;;7.93;;
15946;SDS011;8072;52.554;7.966;2023-04-06T05:47:55;12.67;;;8.10;;
15946;SDS011;8072;52.554;7.966;2023-04-06T05:50:21;11.97;;;8.40;;
15946;SDS011;8072;52.554;7.966;2023-04-06T05:52:47;12.50;;;7.50;;
15946;SDS011;8072;52.554;7.966;2023-04-06T05:55:13;10.60;;;7.97;;
15946;SDS011;8072;52.554;7.966;2023-04-06T05:57:39;12.57;;;8.77;;
15946;SDS011;8072;52.554;7.966;2023-04-06T06:00:05;13.93;;;8.27;;
15946;SDS011;8072;52.554;7.966;2023-04-06T06:02:34;11.67;;;8.43;;
15946;SDS011;8072;52.554;7.966;2023-04-06T06:05:01;12.17;;;8.33;;
15946;SDS011;8072;52.554;7.966;2023-04-06T06:07:27;10.83;;;8.17;;
15946;SDS011;8072;52.554;7.966;2023-04-06T06:09:52;12.20;;;8.47;;
15946;SDS011;8072;52.554;7.966;2023-04-06T06:12:22;15.33;;;8.97;;
15946;SDS011;8072;52.554;7.966;2023-04-06T06:14:48;15.40;;;8.30;;
15946;SDS011;8072;52.554;7.966;2023-04-06T06:17:14;10.80;;;8.33;;
15946;SDS011;8072;52.554;7.966;2023-04-06T06:19:40;11.03;;;8.17;;
15946;SDS011;8072;52.554;7.966;2023-04-06T06:22:06;13.13;;;8.60;;
15946;SDS011;8072;52.554;7.966;2023-04-06T06:24:33;14.13;;;8.53;;
15946;SDS011;8072;52.554;7.966;2023-04-06T06:26:59;10.50;;;7.57;;
15946;SDS011;8072;52.554;7.966;2023-04-06T06:29:25;12.60;;;8.27;;
15946;SDS011;8072;52.554;7.966;2023-04-06T06:31:51;12.20;;;8.03;;
15946;SDS011;8072;52.554;7.966;2023-04-06T06:34:16;13.17;;;8.30;;
15946;SDS011;8072;52.554;7.966;2023-04-06T06:36:42;14.47;;;8.93;;
15946;SDS011;8072;52.554;7.966;2023-04-06T06:39:08;10.57;;;8.33;;
15946;SDS011;8072;52.554;7.966;2023-04-06T06:41:34;12.47;;;8.33;;
15946;SDS011;8072;52.554;7.966;2023-04-06T06:44:00;14.37;;;8.37;;
15946;SDS011;8072;52.554;7.966;2023-04-06T06:46:27;11.87;;;8.97;;
15946;SDS011;8072;52.554;7.966;2023-04-06T06:48:53;14.97;;;8.07;;
15946;SDS011;8072;52.554;7.966;2023-04-06T06:51:18;12.33;;;8.53;;
15946;SDS011;8072;52.554;7.966;2023-04-06T06:53:44;12.30;;;8.60;;
15946;SDS011;8072;52.554;7.966;2023-04-06T06:56:10;14.00;;;8.77;;
15946;SDS011;8072;52.554;7.966;2023-04-06T06:58:37;12.40;;;8.27;;
15946;SDS011;8072;52.554;7.966;2023-04-06T07:01:03;14.07;;;9.00;;
15946;SDS011;8072;52.554;7.966;2023-04-06T07:03:30;12.90;;;9.23;;
15946;SDS011;8072;52.554;7.966;2023-04-06T07:05:56;14.20;;;9.30;;
15946;SDS011;8072;52.554;7.966;2023-04-06T07:08:22;15.70;;;9.93;;
15946;SDS011;8072;52.554;7.966;2023-04-06T07:10:50;12.43;;;9.57;;
15946;SDS011;8072;52.554;7.966;2023-04-06T07:13:21;14.30;;;8.50;;
15946;SDS011;8072;52.554;7.966;2023-04-06T07:15:51;14.70;;;9.37;;
15946;SDS011;8072;52.554;7.966;2023-04-06T07:18:17;15.53;;;9.23;;
15946;SDS011;8072;52.554;7.966;2023-04-06T07:20:44;14.27;;;9.13;;
15946;SDS011;8072;52.554;7.966;2023-04-06T07:23:09;16.17;;;9.87;;
15946;SDS011;8072;52.554;7.966;2023-04-06T07:25:35;15.00;;;9.00;;
15946;SDS011;8072;52.554;7.966;2023-04-06T07:28:04;13.63;;;8.40;;
15946;SDS011;8072;52.554;7.966;2023-04-06T07:30:30;13.93;;;9.43;;
15946;SDS011;8072;52.554;7.966;2023-04-06T07:32:56;13.83;;;9.03;;
15946;SDS011;8072;52.554;7.966;2023-04-06T07:35:24;13.30;;;8.20;;
15946;SDS011;8072;52.554;7.966;2023-04-06T07:37:55;14.53;;;8.03;;
15946;SDS011;8072;52.554;7.966;2023-04-06T07:40:21;13.57;;;7.97;;
15946;SDS011;8072;52.554;7.966;2023-04-06T07:42:47;10.80;;;7.87;;
15946;SDS011;8072;52.554;7.966;2023-04-06T07:45:13;13.70;;;8.67;;
15946;SDS011;8072;52.554;7.966;2023-04-06T07:47:41;13.53;;;8.20;;
15946;SDS011;8072;52.554;7.966;2023-04-06T07:50:07;11.67;;;7.97;;
15946;SDS011;8072;52.554;7.966;2023-04-06T07:52:33;14.70;;;8.70;;
15946;SDS011;8072;52.554;7.966;2023-04-06T07:54:59;12.10;;;8.23;;
15946;SDS011;8072;52.554;7.966;2023-04-06T07:57:25;12.07;;;8.33;;
15946;SDS011;8072;52.554;7.966;2023-04-06T07:59:51;11.43;;;8.00;;
15946;SDS011;8072;52.554;7.966;2023-04-06T08:02:16;10.73;;;8.07;;
15946;SDS011;8072;52.554;7.966;2023-04-06T08:04:43;12.87;;;8.40;;
15946;SDS011;8072;52.554;7.966;2023-04-06T08:07:09;15.03;;;8.90;;
15946;SDS011;8072;52.554;7.966;2023-04-06T08:09:35;13.60;;;7.40;;
15946;SDS011;8072;52.554;7.966;2023-04-06T08:12:00;12.70;;;7.97;;
15946;SDS011;8072;52.554;7.966;2023-04-06T08:14:26;11.30;;;7.83;;
15946;SDS011;8072;52.554;7.966;2023-04-06T08:16:52;12.77;;;8.00;;
15946;SDS011;8072;52.554;7.966;2023-04-06T08:19:18;14.07;;;9.07;;
15946;SDS011;8072;52.554;7.966;2023-04-06T08:21:44;13.63;;;8.63;;
15946;SDS011;8072;52.554;7.966;2023-04-06T08:24:11;14.70;;;8.33;;
15946;SDS011;8072;52.554;7.966;2023-04-06T08:26:37;14.03;;;8.23;;
15946;SDS011;8072;52.554;7.966;2023-04-06T08:29:03;13.17;;;7.80;;
15946;SDS011;8072;52.554;7.966;2023-04-06T08:31:29;13.97;;;8.53;;
15946;SDS011;8072;52.554;7.966;2023-04-06T08:33:55;12.87;;;8.37;;
15946;SDS011;8072;52.554;7.966;2023-04-06T08:36:21;14.03;;;9.13;;
15946;SDS011;8072;52.554;7.966;2023-04-06T08:38:48;13.77;;;8.77;;
15946;SDS011;8072;52.554;7.966;2023-04-06T08:41:15;14.63;;;8.50;;
15946;SDS011;8072;52.554;7.966;2023-04-06T08:43:46;14.50;;;9.20;;
15946;SDS011;8072;52.554;7.966;2023-04-06T08:46:13;11.53;;;7.87;;
15946;SDS011;8072;52.554;7.966;2023-04-06T08:48:40;14.23;;;8.50;;
15946;SDS011;8072;52.554;7.966;2023-04-06T08:51:11;12.80;;;8.63;;
15946;SDS011;8072;52.554;7.966;2023-04-06T08:53:37;11.00;;;7.63;;
15946;SDS011;8072;52.554;7.966;2023-04-06T08:56:03;11.63;;;7.50;;
15946;SDS011;8072;52.554;7.966;2023-04-06T08:58:34;13.53;;;8.60;;
15946;SDS011;8072;52.554;7.966;2023-04-06T09:01:03;14.97;;;8.80;;
15946;SDS011;8072;52.554;7.966;2023-04-06T09:03:33;14.40;;;8.37;;
15946;SDS011;8072;52.554;7.966;2023-04-06T09:06:03;11.63;;;8.40;;
15946;SDS011;8072;52.554;7.966;2023-04-06T09:08:29;12.80;;;7.87;;
15946;SDS011;8072;52.554;7.966;2023-04-06T09:10:58;15.67;;;8.10;;
15946;SDS011;8072;52.554;7.966;2023-04-06T09:13:25;17.57;;;8.23;;
15946;SDS011;8072;52.554;7.966;2023-04-06T09:16:01;12.30;;;8.40;;
15946;SDS011;8072;52.554;7.966;2023-04-06T09:18:28;12.80;;;8.17;;
15946;SDS011;8072;52.554;7.966;2023-04-06T09:21:02;12.87;;;7.83;;
15946;SDS011;8072;52.554;7.966;2023-04-06T09:23:30;12.67;;;8.73;;
15946;SDS011;8072;52.554;7.966;2023-04-06T09:28:42;10.80;;;7.77;;
15946;SDS011;8072;52.554;7.966;2023-04-06T09:31:16;14.57;;;8.77;;
15946;SDS011;8072;52.554;7.966;2023-04-06T09:33:49;16.43;;;8.83;;
15946;SDS011;8072;52.554;7.966;2023-04-06T09:36:17;14.37;;;8.73;;
15946;SDS011;8072;52.554;7.966;2023-04-06T09:39:00;13.63;;;8.60;;
15946;SDS011;8072;52.554;7.966;2023-04-06T09:41:28;15.10;;;8.50;;
15946;SDS011;8072;52.554;7.966;2023-04-06T09:46:35;16.37;;;8.30;;
15946;SDS011;8072;52.554;7.966;2023-04-06T09:49:02;14.17;;;8.30;;
15946;SDS011;8072;52.554;7.966;2023-04-06T09:51:32;13.60;;;9.20;;
15946;SDS011;8072;52.554;7.966;2023-04-06T09:54:22;14.10;;;9.37;;
15946;SDS011;8072;52.554;7.966;2023-04-06T09:56:51;14.87;;;8.93;;
15946;SDS011;8072;52.554;7.966;2023-04-06T09:59:58;13.83;;;9.20;;
15946;SDS011;8072;52.554;7.966;2023-04-06T10:05:19;15.50;;;9.20;;
15946;SDS011;8072;52.554;7.966;2023-04-06T10:07:56;13.23;;;9.03;;
15946;SDS011;8072;52.554;7.966;2023-04-06T10:10:25;15.30;;;9.33;;
15946;SDS011;8072;52.554;7.966;2023-04-06T10:12:51;14.60;;;9.07;;
15946;SDS011;8072;52.554;7.966;2023-04-06T10:15:18;16.13;;;9.67;;
15946;SDS011;8072;52.554;7.966;2023-04-06T10:17:44;14.80;;;9.27;;
15946;SDS011;8072;52.554;7.966;2023-04-06T10:25:31;13.83;;;9.40;;
15946;SDS011;8072;52.554;7.966;2023-04-06T10:28:16;14.70;;;9.43;;
15946;SDS011;8072;52.554;7.966;2023-04-06T10:30:45;14.40;;;9.63;;
15946;SDS011;8072;52.554;7.966;2023-04-06T10:33:14;15.47;;;10.00;;
15946;SDS011;8072;52.554;7.966;2023-04-06T10:35:44;14.67;;;9.67;;
15946;SDS011;8072;52.554;7.966;2023-04-06T10:38:10;15.37;;;9.73;;
15946;SDS011;8072;52.554;7.966;2023-04-06T10:40:39;16.43;;;10.10;;
15946;SDS011;8072;52.554;7.966;2023-04-06T10:43:11;17.23;;;10.73;;
15946;SDS011;8072;52.554;7.966;2023-04-06T10:45:44;20.57;;;12.93;;
15946;SDS011;8072;52.554;7.966;2023-04-06T10:48:19;21.97;;;12.87;;
15946;SDS011;8072;52.554;7.966;2023-04-06T10:50:46;21.43;;;12.73;;
15946;SDS011;8072;52.554;7.966;2023-04-06T10:53:20;20.43;;;13.00;;
15946;SDS011;8072;52.554;7.966;2023-04-06T10:55:51;17.93;;;12.13;;
15946;SDS011;8072;52.554;7.966;2023-04-06T10:58:18;20.43;;;13.33;;
15946;SDS011;8072;52.554;7.966;2023-04-06T11:00:44;18.63;;;12.30;;
15946;SDS011;8072;52.554;7.966;2023-04-06T11:03:11;21.00;;;12.77;;
15946;SDS011;8072;52.554;7.966;2023-04-06T11:05:37;23.10;;;13.37;;
15946;SDS011;8072;52.554;7.966;2023-04-06T11:08:03;20.20;;;12.77;;
15946;SDS011;8072;52.554;7.966;2023-04-06T11:10:29;23.90;;;13.33;;
15946;SDS011;8072;52.554;7.966;2023-04-06T11:12:58;23.90;;;12.30;;
15946;SDS011;8072;52.554;7.966;2023-04-06T11:15:23;17.53;;;11.60;;
15946;SDS011;8072;52.554;7.966;2023-04-06T11:17:49;18.97;;;11.17;;
15946;SDS011;8072;52.554;7.966;2023-04-06T11:20:15;18.97;;;11.70;;
15946;SDS011;8072;52.554;7.966;2023-04-06T11:22:49;21.13;;;12.23;;
15946;SDS011;8072;52.554;7.966;2023-04-06T11:25:15;17.00;;;11.13;;
15946;SDS011;8072;52.554;7.966;2023-04-06T11:27:42;20.20;;;11.63;;
15946;SDS011;8072;52.554;7.966;2023-04-06T11:30:08;18.30;;;11.33;;
15946;SDS011;8072;52.554;7.966;2023-04-06T11:32:41;18.23;;;10.80;;
15946;SDS011;8072;52.554;7.966;2023-04-06T11:35:13;16.00;;;10.40;;
15946;SDS011;8072;52.554;7.966;2023-04-06T11:37:48;18.97;;;11.53;;
15946;SDS011;8072;52.554;7.966;2023-04-06T11:40:15;17.63;;;11.80;;
15946;SDS011;8072;52.554;7.966;2023-04-06T11:42:41;20.73;;;11.50;;
15946;SDS011;8072;52.554;7.966;2023-04-06T11:45:07;21.30;;;11.53;;
15946;SDS011;8072;52.554;7.966;2023-04-06T11:47:34;21.77;;;12.33;;
15946;SDS011;8072;52.554;7.966;2023-04-06T11:50:08;16.87;;;11.20;;
15946;SDS011;8072;52.554;7.966;2023-04-06T11:52:38;18.03;;;11.23;;
15946;SDS011;8072;52.554;7.966;2023-04-06T11:55:11;18.60;;;10.87;;
15946;SDS011;8072;52.554;7.966;2023-04-06T11:57:42;20.33;;;12.17;;
15946;SDS011;8072;52.554;7.966;2023-04-06T12:00:09;18.03;;;11.77;;
15946;SDS011;8072;52.554;7.966;2023-04-06T12:02:36;20.00;;;12.27;;
15946;SDS011;8072;52.554;7.966;2023-04-06T12:05:05;16.37;;;11.70;;
15946;SDS011;8072;52.554;7.966;2023-04-06T12:07:32;16.43;;;11.20;;
15946;SDS011;8072;52.554;7.966;2023-04-06T12:09:58;18.13;;;11.73;;
15946;SDS011;8072;52.554;7.966;2023-04-06T12:12:25;20.00;;;11.20;;
15946;SDS011;8072;52.554;7.966;2023-04-06T12:14:52;18.67;;;11.60;;
15946;SDS011;8072;52.554;7.966;2023-04-06T12:17:18;18.70;;;11.87;;
15946;SDS011;8072;52.554;7.966;2023-04-06T12:19:45;18.87;;;10.90;;
15946;SDS011;8072;52.554;7.966;2023-04-06T12:22:11;18.50;;;11.23;;
15946;SDS011;8072;52.554;7.966;2023-04-06T12:24:37;17.97;;;11.87;;
15946;SDS011;8072;52.554;7.966;2023-04-06T12:27:03;16.27;;;10.87;;
15946;SDS011;8072;52.554;7.966;2023-04-06T12:29:28;19.90;;;11.67;;
15946;SDS011;8072;52.554;7.966;2023-04-06T12:31:54;18.40;;;11.63;;
15946;SDS011;8072;52.554;7.966;2023-04-06T12:34:21;16.40;;;11.07;;
15946;SDS011;8072;52.554;7.966;2023-04-06T12:36:47;17.90;;;11.60;;
15946;SDS011;8072;52.554;7.966;2023-04-06T12:39:12;15.80;;;10.37;;
15946;SDS011;8072;52.554;7.966;2023-04-06T12:41:38;17.33;;;11.73;;
15946;SDS011;8072;52.554;7.966;2023-04-06T12:44:06;16.30;;;10.63;;
15946;SDS011;8072;52.554;7.966;2023-04-06T12:46:32;18.10;;;10.90;;
15946;SDS011;8072;52.554;7.966;2023-04-06T12:48:58;17.80;;;10.90;;
15946;SDS011;8072;52.554;7.966;2023-04-06T12:51:27;16.60;;;10.93;;
15946;SDS011;8072;52.554;7.966;2023-04-06T12:53:53;16.57;;;10.73;;
15946;SDS011;8072;52.554;7.966;2023-04-06T12:56:20;15.77;;;10.13;;
15946;SDS011;8072;52.554;7.966;2023-04-06T12:58:47;16.87;;;9.70;;
15946;SDS011;8072;52.554;7.966;2023-04-06T13:01:13;15.73;;;10.47;;
15946;SDS011;8072;52.554;7.966;2023-04-06T13:03:39;17.10;;;10.40;;
15946;SDS011;8072;52.554;7.966;2023-04-06T13:06:06;16.07;;;10.40;;
15946;SDS011;8072;52.554;7.966;2023-04-06T13:08:33;16.80;;;9.17;;
15946;SDS011;8072;52.554;7.966;2023-04-06T13:11:01;19.50;;;10.40;;
15946;SDS011;8072;52.554;7.966;2023-04-06T13:13:27;15.43;;;9.70;;
15946;SDS011;8072;52.554;7.966;2023-04-06T13:15:54;16.63;;;10.73;;
15946;SDS011;8072;52.554;7.966;2023-04-06T13:18:24;18.27;;;11.50;;
15946;SDS011;8072;52.554;7.966;2023-04-06T13:20:50;16.17;;;10.87;;
15946;SDS011;8072;52.554;7.966;2023-04-06T13:23:16;16.40;;;10.57;;
15946;SDS011;8072;52.554;7.966;2023-04-06T13:25:42;17.93;;;10.57;;
15946;SDS011;8072;52.554;7.966;2023-04-06T13:28:08;14.93;;;9.17;;
15946;SDS011;8072;52.554;7.966;2023-04-06T13:30:35;13.80;;;8.67;;
15946;SDS011;8072;52.554;7.966;2023-04-06T13:33:01;13.20;;;9.13;;
15946;SDS011;8072;52.554;7.966;2023-04-06T13:35:27;13.23;;;9.47;;
15946;SDS011;8072;52.554;7.966;2023-04-06T13:37:53;16.33;;;10.07;;
15946;SDS011;8072;52.554;7.966;2023-04-06T13:40:19;15.20;;;9.93;;
15946;SDS011;8072;52.554;7.966;2023-04-06T13:42:46;15.73;;;10.87;;
15946;SDS011;8072;52.554;7.966;2023-04-06T13:45:12;15.23;;;9.23;;
15946;SDS011;8072;52.554;7.966;2023-04-06T13:47:38;15.93;;;10.70;;
15946;SDS011;8072;52.554;7.966;2023-04-06T13:50:04;16.97;;;10.60;;
15946;SDS011;8072;52.554;7.966;2023-04-06T13:52:31;18.97;;;10.77;;
15946;SDS011;8072;52.554;7.966;2023-04-06T13:54:57;16.47;;;10.70;;
15946;SDS011;8072;52.554;7.966;2023-04-06T13:57:22;15.63;;;10.37;;
15946;SDS011;8072;52.554;7.966;2023-04-06T13:59:48;16.57;;;10.20;;
15946;SDS011;8072;52.554;7.966;2023-04-06T14:02:17;17.23;;;10.40;;
15946;SDS011;8072;52.554;7.966;2023-04-06T14:04:44;16.30;;;9.83;;
15946;SDS011;8072;52.554;7.966;2023-04-06T14:07:10;16.67;;;10.33;;
15946;SDS011;8072;52.554;7.966;2023-04-06T14:09:37;16.17;;;10.80;;
15946;SDS011;8072;52.554;7.966;2023-04-06T14:12:03;19.87;;;11.03;;
15946;SDS011;8072;52.554;7.966;2023-04-06T14:14:28;18.60;;;11.50;;
15946;SDS011;8072;52.554;7.966;2023-04-06T14:16:54;17.73;;;10.90;;
15946;SDS011;8072;52.554;7.966;2023-04-06T14:19:20;17.20;;;10.67;;
15946;SDS011;8072;52.554;7.966;2023-04-06T14:21:47;17.60;;;11.07;;
15946;SDS011;8072;52.554;7.966;2023-04-06T14:24:14;15.50;;;9.87;;
15946;SDS011;8072;52.554;7.966;2023-04-06T14:26:41;16.97;;;10.50;;
15946;SDS011;8072;52.554;7.966;2023-04-06T14:29:07;15.40;;;10.87;;
15946;SDS011;8072;52.554;7.966;2023-04-06T14:31:34;16.83;;;10.63;;
15946;SDS011;8072;52.554;7.966;2023-04-06T14:34:00;17.20;;;10.17;;
15946;SDS011;8072;52.554;7.966;2023-04-06T14:36:27;16.07;;;10.47;;
15946;SDS011;8072;52.554;7.966;2023-04-06T14:38:54;15.10;;;9.93;;
15946;SDS011;8072;52.554;7.966;2023-04-06T14:41:23;18.37;;;10.57;;
15946;SDS011;8072;52.554;7.966;2023-04-06T14:43:52;15.83;;;9.97;;
15946;SDS011;8072;52.554;7.966;2023-04-06T14:46:18;16.20;;;10.73;;
15946;SDS011;8072;52.554;7.966;2023-04-06T14:48:44;18.60;;;10.37;;
15946;SDS011;8072;52.554;7.966;2023-04-06T14:51:10;18.60;;;11.77;;
15946;SDS011;8072;52.554;7.966;2023-04-06T14:53:36;17.10;;;10.87;;
15946;SDS011;8072;52.554;7.966;2023-04-06T14:56:03;17.77;;;11.50;;
15946;SDS011;8072;52.554;7.966;2023-04-06T14:58:29;14.37;;;9.93;;
15946;SDS011;8072;52.554;7.966;2023-04-06T15:00:56;18.00;;;10.50;;